Главная страница
METAR-TAF:

METAR-TAF

Аэропорты :

Sälen Trysil, Швеция

широта: 61-09-32N, долгота: 12-50-24E, высота над уровнем моря: 490 м

Текущие метеонаблюдения

Эта сводка был подготовлена 24 минут назад, в 20:50 UTC
Ветер 6 Узел от северо-восточный
Температура 6°C
Влажность 100%
Давление 1009 hPa
Видимость 10 км и более

METAR: ESKS 132050Z AUTO 04006KT 9999 FEW056/// 06/06 Q1009

Время: 23:14 (21:14 UTC)


TAF: отсутствует

Метеонаблюдения и прогнозы для более 4000 аэропортов (сводки METAR и TAF).

Имеющиеся станции представлены на карте желтыми и красными точками.

Чтобы увидеть название станции, наведите на нее мышь.

Затем щелкните, чтобы увидеть метеонаблюдения и метеопрогнозы.

Управление картой: чтобы увеличить масштаб, щелкните зеленые кнопки с черным крестиком; чтобы уменьшить масштаб, щелкните зеленую кнопку с тире; для просмотра соседних карт щелкайте зеленые стрелки.


METAR-TAF: